sensor_id;sensor_type;location;lat;lon;timestamp;pressure;altitude;pressure_sealevel;temperature;humidity
56400;BME280;42298;53.638;9.876;2023-07-20T00:01:15;101018.28;;;18.61;67.49
56400;BME280;42298;53.638;9.876;2023-07-20T00:03:40;101029.56;;;18.64;67.44
56400;BME280;42298;53.638;9.876;2023-07-20T00:06:06;101025.59;;;18.65;67.78
56400;BME280;42298;53.638;9.876;2023-07-20T00:08:31;101016.22;;;18.58;67.68
56400;BME280;42298;53.638;9.876;2023-07-20T00:10:57;101027.56;;;18.65;67.86
56400;BME280;42298;53.638;9.876;2023-07-20T00:13:22;101024.41;;;18.66;68.35
56400;BME280;42298;53.638;9.876;2023-07-20T00:15:47;101015.25;;;18.66;68.00
56400;BME280;42298;53.638;9.876;2023-07-20T00:18:13;101015.25;;;18.66;68.08
56400;BME280;42298;53.638;9.876;2023-07-20T00:20:39;101018.13;;;18.69;68.03
56400;BME280;42298;53.638;9.876;2023-07-20T00:23:04;101019.19;;;18.65;68.45
56400;BME280;42298;53.638;9.876;2023-07-20T00:25:30;101018.03;;;18.66;68.18
56400;BME280;42298;53.638;9.876;2023-07-20T00:27:55;101020.13;;;18.69;68.58
56400;BME280;42298;53.638;9.876;2023-07-20T00:30:20;101017.03;;;18.58;68.46
56400;BME280;42298;53.638;9.876;2023-07-20T00:32:46;101021.53;;;18.63;68.66
56400;BME280;42298;53.638;9.876;2023-07-20T00:35:12;101024.41;;;18.66;69.14
56400;BME280;42298;53.638;9.876;2023-07-20T00:37:39;101021.25;;;18.68;69.03
56400;BME280;42298;53.638;9.876;2023-07-20T00:40:05;101028.00;;;18.67;69.04
56400;BME280;42298;53.638;9.876;2023-07-20T00:42:32;101031.53;;;18.64;69.11
56400;BME280;42298;53.638;9.876;2023-07-20T00:44:58;101020.25;;;18.60;69.51
56400;BME280;42298;53.638;9.876;2023-07-20T00:47:23;101023.75;;;18.57;70.16
56400;BME280;42298;53.638;9.876;2023-07-20T00:49:50;100998.47;;;18.50;69.61
56400;BME280;42298;53.638;9.876;2023-07-20T00:52:16;101009.63;;;18.50;69.75
56400;BME280;42298;53.638;9.876;2023-07-20T00:54:41;101001.53;;;18.45;70.76
56400;BME280;42298;53.638;9.876;2023-07-20T00:57:07;101010.09;;;18.52;71.12
56400;BME280;42298;53.638;9.876;2023-07-20T00:59:34;101009.25;;;18.52;70.89
56400;BME280;42298;53.638;9.876;2023-07-20T01:01:59;101017.63;;;18.52;71.09
56400;BME280;42298;53.638;9.876;2023-07-20T01:04:24;101001.06;;;18.43;71.09
56400;BME280;42298;53.638;9.876;2023-07-20T01:07:03;101013.78;;;18.56;71.71
56400;BME280;42298;53.638;9.876;2023-07-20T01:12:26;101009.00;;;18.57;71.34
56400;BME280;42298;53.638;9.876;2023-07-20T01:14:53;101010.09;;;18.52;72.01
56400;BME280;42298;53.638;9.876;2023-07-20T01:17:18;101017.53;;;18.48;72.18
56400;BME280;42298;53.638;9.876;2023-07-20T01:19:44;101016.47;;;18.53;72.70
56400;BME280;42298;53.638;9.876;2023-07-20T01:22:21;101014.03;;;18.51;71.96
56400;BME280;42298;53.638;9.876;2023-07-20T01:30:47;101014.19;;;18.43;72.76
56400;BME280;42298;53.638;9.876;2023-07-20T01:33:16;101013.47;;;18.46;72.80
56400;BME280;42298;53.638;9.876;2023-07-20T01:35:43;101012.69;;;18.45;72.47
56400;BME280;42298;53.638;9.876;2023-07-20T01:38:11;101009.53;;;18.47;72.77
56400;BME280;42298;53.638;9.876;2023-07-20T01:40:38;101008.19;;;18.41;72.41
56400;BME280;42298;53.638;9.876;2023-07-20T01:43:04;101014.66;;;18.45;73.10
56400;BME280;42298;53.638;9.876;2023-07-20T01:45:29;101000.84;;;18.36;72.76
56400;BME280;42298;53.638;9.876;2023-07-20T01:47:54;100987.75;;;18.25;73.42
56400;BME280;42298;53.638;9.876;2023-07-20T01:50:20;100997.59;;;18.34;73.14
56400;BME280;42298;53.638;9.876;2023-07-20T01:52:45;101006.09;;;18.38;73.60
56400;BME280;42298;53.638;9.876;2023-07-20T01:55:10;101000.97;;;18.40;72.96
56400;BME280;42298;53.638;9.876;2023-07-20T01:57:36;101004.69;;;18.44;73.48
56400;BME280;42298;53.638;9.876;2023-07-20T02:00:01;101015.13;;;18.47;73.09
56400;BME280;42298;53.638;9.876;2023-07-20T02:02:27;101015.47;;;18.45;72.99
56400;BME280;42298;53.638;9.876;2023-07-20T02:04:57;100999.00;;;18.40;73.55
56400;BME280;42298;53.638;9.876;2023-07-20T02:07:22;101001.06;;;18.43;72.77
56400;BME280;42298;53.638;9.876;2023-07-20T02:09:47;100993.75;;;18.39;73.50
56400;BME280;42298;53.638;9.876;2023-07-20T02:12:13;101003.22;;;18.50;73.28
56400;BME280;42298;53.638;9.876;2023-07-20T02:14:38;101003.03;;;18.43;72.96
56400;BME280;42298;53.638;9.876;2023-07-20T02:17:05;101018.34;;;18.49;73.37
56400;BME280;42298;53.638;9.876;2023-07-20T02:19:31;101015.50;;;18.61;73.18
56400;BME280;42298;53.638;9.876;2023-07-20T02:21:56;101011.22;;;18.51;73.14
56400;BME280;42298;53.638;9.876;2023-07-20T02:24:22;101005.47;;;18.44;73.69
56400;BME280;42298;53.638;9.876;2023-07-20T02:26:47;101011.41;;;18.43;73.62
56400;BME280;42298;53.638;9.876;2023-07-20T02:29:12;101018.34;;;18.49;74.14
56400;BME280;42298;53.638;9.876;2023-07-20T02:31:38;101018.34;;;18.49;73.54
56400;BME280;42298;53.638;9.876;2023-07-20T02:34:05;101008.59;;;18.43;73.95
56400;BME280;42298;53.638;9.876;2023-07-20T02:36:30;101016.06;;;18.39;73.32
56400;BME280;42298;53.638;9.876;2023-07-20T02:38:59;101016.66;;;18.32;74.18
56400;BME280;42298;53.638;9.876;2023-07-20T02:41:24;101018.53;;;18.28;74.40
56400;BME280;42298;53.638;9.876;2023-07-20T02:43:50;101027.09;;;18.35;74.66
56400;BME280;42298;53.638;9.876;2023-07-20T02:46:15;101016.44;;;18.25;74.42
56400;BME280;42298;53.638;9.876;2023-07-20T02:48:40;101019.53;;;18.36;74.43
56400;BME280;42298;53.638;9.876;2023-07-20T02:51:06;101009.00;;;18.29;74.09
56400;BME280;42298;53.638;9.876;2023-07-20T02:53:32;101014.47;;;18.38;74.16
56400;BME280;42298;53.638;9.876;2023-07-20T02:55:58;101023.03;;;18.45;74.27
56400;BME280;42298;53.638;9.876;2023-07-20T02:58:23;101022.19;;;18.44;73.70
56400;BME280;42298;53.638;9.876;2023-07-20T03:00:48;101019.41;;;18.44;73.88
56400;BME280;42298;53.638;9.876;2023-07-20T03:03:13;101012.47;;;18.38;73.43
56400;BME280;42298;53.638;9.876;2023-07-20T03:05:41;101004.22;;;18.30;73.21
56400;BME280;42298;53.638;9.876;2023-07-20T03:08:06;101015.53;;;18.21;73.57
56400;BME280;42298;53.638;9.876;2023-07-20T03:10:32;101028.44;;;18.26;73.80
56400;BME280;42298;53.638;9.876;2023-07-20T03:12:57;101019.84;;;18.19;74.34
56400;BME280;42298;53.638;9.876;2023-07-20T03:15:24;101026.22;;;18.19;74.77
56400;BME280;42298;53.638;9.876;2023-07-20T03:17:49;101030.28;;;18.22;74.67
56400;BME280;42298;53.638;9.876;2023-07-20T03:20:15;101042.72;;;18.24;74.16
56400;BME280;42298;53.638;9.876;2023-07-20T03:22:41;101023.78;;;18.18;74.37
56400;BME280;42298;53.638;9.876;2023-07-20T03:25:06;101024.50;;;18.15;74.52
56400;BME280;42298;53.638;9.876;2023-07-20T03:27:33;101010.84;;;17.98;74.67
56400;BME280;42298;53.638;9.876;2023-07-20T03:29:58;101027.84;;;18.20;74.56
56400;BME280;42298;53.638;9.876;2023-07-20T03:32:23;101003.97;;;18.07;74.41
56400;BME280;42298;53.638;9.876;2023-07-20T03:34:48;101017.44;;;18.05;74.98
56400;BME280;42298;53.638;9.876;2023-07-20T03:37:14;101017.00;;;18.03;75.18
56400;BME280;42298;53.638;9.876;2023-07-20T03:39:40;101038.78;;;18.13;75.05
56400;BME280;42298;53.638;9.876;2023-07-20T03:42:06;101028.59;;;18.05;74.34
56400;BME280;42298;53.638;9.876;2023-07-20T03:44:31;101030.59;;;18.05;74.44
56400;BME280;42298;53.638;9.876;2023-07-20T03:46:57;101039.03;;;18.08;74.96
56400;BME280;42298;53.638;9.876;2023-07-20T03:49:22;101041.47;;;18.10;74.78
56400;BME280;42298;53.638;9.876;2023-07-20T03:51:48;101013.97;;;17.96;75.03
56400;BME280;42298;53.638;9.876;2023-07-20T03:54:13;101021.53;;;17.96;75.24
56400;BME280;42298;53.638;9.876;2023-07-20T03:56:38;101038.00;;;18.01;75.26
56400;BME280;42298;53.638;9.876;2023-07-20T03:59:04;101039.84;;;18.09;75.11
56400;BME280;42298;53.638;9.876;2023-07-20T04:01:30;101028.34;;;18.10;74.94
56400;BME280;42298;53.638;9.876;2023-07-20T04:03:55;101047.63;;;18.15;75.36
56400;BME280;42298;53.638;9.876;2023-07-20T04:06:22;101040.06;;;18.16;74.73
56400;BME280;42298;53.638;9.876;2023-07-20T04:08:47;101045.38;;;18.21;74.85
56400;BME280;42298;53.638;9.876;2023-07-20T04:11:13;101043.31;;;18.18;74.58
56400;BME280;42298;53.638;9.876;2023-07-20T04:13:38;101035.88;;;18.10;74.92
56400;BME280;42298;53.638;9.876;2023-07-20T04:16:05;101047.75;;;18.07;75.23
56400;BME280;42298;53.638;9.876;2023-07-20T04:18:30;101037.09;;;17.97;74.82
56400;BME280;42298;53.638;9.876;2023-07-20T04:20:56;101036.38;;;18.00;74.91
56400;BME280;42298;53.638;9.876;2023-07-20T04:23:21;101040.56;;;18.06;74.80
56400;BME280;42298;53.638;9.876;2023-07-20T04:25:46;101033.00;;;18.06;75.00
56400;BME280;42298;53.638;9.876;2023-07-20T04:28:12;101052.38;;;18.15;74.57
56400;BME280;42298;53.638;9.876;2023-07-20T04:30:38;101055.16;;;18.15;75.36
56400;BME280;42298;53.638;9.876;2023-07-20T04:33:05;101044.63;;;17.96;75.45
56400;BME280;42298;53.638;9.876;2023-07-20T04:35:50;101040.00;;;18.00;75.50
56400;BME280;42298;53.638;9.876;2023-07-20T04:38:20;101065.50;;;18.14;75.80
56400;BME280;42298;53.638;9.876;2023-07-20T04:40:48;101060.94;;;18.22;75.80
56400;BME280;42298;53.638;9.876;2023-07-20T04:43:14;101057.31;;;18.45;74.46
56400;BME280;42298;53.638;9.876;2023-07-20T04:45:40;101045.16;;;18.38;74.33
56400;BME280;42298;53.638;9.876;2023-07-20T04:48:10;101058.38;;;18.41;75.18
56400;BME280;42298;53.638;9.876;2023-07-20T04:50:40;101058.09;;;18.46;74.97
56400;BME280;42298;53.638;9.876;2023-07-20T04:53:05;101057.41;;;18.49;74.95
56400;BME280;42298;53.638;9.876;2023-07-20T04:55:31;101050.03;;;18.56;75.24
56400;BME280;42298;53.638;9.876;2023-07-20T04:57:58;101049.56;;;18.54;74.60
56400;BME280;42298;53.638;9.876;2023-07-20T05:00:24;101043.63;;;18.56;74.45
56400;BME280;42298;53.638;9.876;2023-07-20T05:02:50;101052.94;;;18.60;74.72
56400;BME280;42298;53.638;9.876;2023-07-20T05:05:15;101055.03;;;18.63;74.48
56400;BME280;42298;53.638;9.876;2023-07-20T05:07:40;101058.59;;;18.63;74.07
56400;BME280;42298;53.638;9.876;2023-07-20T05:10:06;101058.72;;;18.67;74.71
56400;BME280;42298;53.638;9.876;2023-07-20T05:12:32;101060.53;;;18.75;73.89
56400;BME280;42298;53.638;9.876;2023-07-20T05:14:57;101059.13;;;18.81;74.32
56400;BME280;42298;53.638;9.876;2023-07-20T05:17:25;101060.00;;;18.85;74.65
56400;BME280;42298;53.638;9.876;2023-07-20T05:19:51;101047.94;;;18.81;73.47
56400;BME280;42298;53.638;9.876;2023-07-20T05:22:16;101057.94;;;18.82;73.73
56400;BME280;42298;53.638;9.876;2023-07-20T05:24:42;101060.72;;;18.82;74.27
56400;BME280;42298;53.638;9.876;2023-07-20T05:27:07;101043.78;;;18.75;73.68
56400;BME280;42298;53.638;9.876;2023-07-20T05:29:32;101058.19;;;18.77;74.33
56400;BME280;42298;53.638;9.876;2023-07-20T05:31:58;101058.03;;;18.85;73.95
56400;BME280;42298;53.638;9.876;2023-07-20T05:34:23;101059.47;;;18.95;73.81
56400;BME280;42298;53.638;9.876;2023-07-20T05:36:49;101057.97;;;18.98;73.70
56400;BME280;42298;53.638;9.876;2023-07-20T05:39:16;101048.59;;;19.06;73.07
56400;BME280;42298;53.638;9.876;2023-07-20T05:41:42;101046.88;;;19.01;72.39
56400;BME280;42298;53.638;9.876;2023-07-20T05:44:07;101049.41;;;19.06;73.28
56400;BME280;42298;53.638;9.876;2023-07-20T05:46:32;101060.22;;;19.08;73.08
56400;BME280;42298;53.638;9.876;2023-07-20T05:48:58;101055.38;;;19.20;72.92
56400;BME280;42298;53.638;9.876;2023-07-20T05:51:24;101052.78;;;19.27;72.35
56400;BME280;42298;53.638;9.876;2023-07-20T05:53:49;101052.97;;;19.34;72.27
56400;BME280;42298;53.638;9.876;2023-07-20T05:56:15;101055.03;;;19.37;71.97
56400;BME280;42298;53.638;9.876;2023-07-20T05:58:40;101049.38;;;19.34;71.02
56400;BME280;42298;53.638;9.876;2023-07-20T06:01:05;101056.56;;;19.50;71.68
56400;BME280;42298;53.638;9.876;2023-07-20T06:03:31;101062.94;;;19.66;71.66
56400;BME280;42298;53.638;9.876;2023-07-20T06:06:01;101067.00;;;19.69;69.84
56400;BME280;42298;53.638;9.876;2023-07-20T06:08:28;101062.91;;;19.82;70.36
56400;BME280;42298;53.638;9.876;2023-07-20T06:10:54;101060.72;;;19.91;69.03
56400;BME280;42298;53.638;9.876;2023-07-20T06:13:19;101067.25;;;19.79;67.82
56400;BME280;42298;53.638;9.876;2023-07-20T06:15:45;101052.66;;;19.70;68.09
56400;BME280;42298;53.638;9.876;2023-07-20T06:18:10;101056.28;;;19.71;68.23
56400;BME280;42298;53.638;9.876;2023-07-20T06:20:36;101063.72;;;19.82;67.74
56400;BME280;42298;53.638;9.876;2023-07-20T06:23:02;101070.91;;;19.83;68.69
56400;BME280;42298;53.638;9.876;2023-07-20T06:25:28;101068.88;;;20.15;67.97
56400;BME280;42298;53.638;9.876;2023-07-20T06:27:55;101071.50;;;20.23;67.00
56400;BME280;42298;53.638;9.876;2023-07-20T06:30:20;101077.00;;;20.20;66.22
56400;BME280;42298;53.638;9.876;2023-07-20T06:32:46;101076.13;;;20.16;66.75
56400;BME280;42298;53.638;9.876;2023-07-20T06:35:11;101089.88;;;20.24;67.00
56400;BME280;42298;53.638;9.876;2023-07-20T06:37:36;101078.41;;;20.29;67.05
56400;BME280;42298;53.638;9.876;2023-07-20T06:40:02;101081.50;;;20.43;66.67
56400;BME280;42298;53.638;9.876;2023-07-20T06:42:29;101077.75;;;20.36;66.40
56400;BME280;42298;53.638;9.876;2023-07-20T06:44:54;101066.09;;;20.15;64.92
56400;BME280;42298;53.638;9.876;2023-07-20T06:47:20;101075.31;;;20.00;65.99
56400;BME280;42298;53.638;9.876;2023-07-20T06:49:45;101069.09;;;19.91;66.76
56400;BME280;42298;53.638;9.876;2023-07-20T06:52:10;101073.81;;;19.87;65.16
56400;BME280;42298;53.638;9.876;2023-07-20T06:54:35;101080.41;;;19.79;64.88
56400;BME280;42298;53.638;9.876;2023-07-20T06:57:01;101078.88;;;19.81;65.22
56400;BME280;42298;53.638;9.876;2023-07-20T06:59:26;101068.91;;;19.99;65.37
56400;BME280;42298;53.638;9.876;2023-07-20T07:01:51;101072.59;;;20.19;64.27
56400;BME280;42298;53.638;9.876;2023-07-20T07:04:16;101066.31;;;20.25;62.48
56400;BME280;42298;53.638;9.876;2023-07-20T07:06:42;101065.03;;;20.38;63.92
56400;BME280;42298;53.638;9.876;2023-07-20T07:09:07;101068.56;;;20.35;62.24
56400;BME280;42298;53.638;9.876;2023-07-20T07:11:33;101060.03;;;20.47;62.21
56400;BME280;42298;53.638;9.876;2023-07-20T07:13:59;101069.28;;;20.51;62.45
56400;BME280;42298;53.638;9.876;2023-07-20T07:16:24;101061.75;;;20.55;61.37
56400;BME280;42298;53.638;9.876;2023-07-20T07:18:50;101071.72;;;20.34;60.21
56400;BME280;42298;53.638;9.876;2023-07-20T07:21:15;101083.94;;;20.10;60.23
56400;BME280;42298;53.638;9.876;2023-07-20T07:23:41;101082.66;;;19.89;61.48
56400;BME280;42298;53.638;9.876;2023-07-20T07:26:07;101076.00;;;19.78;59.89
56400;BME280;42298;53.638;9.876;2023-07-20T07:28:32;101082.56;;;19.70;60.27
56400;BME280;42298;53.638;9.876;2023-07-20T07:30:57;101084.94;;;19.68;59.78
56400;BME280;42298;53.638;9.876;2023-07-20T07:33:23;101074.56;;;19.68;59.64
56400;BME280;42298;53.638;9.876;2023-07-20T07:35:49;101072.09;;;19.82;60.41
56400;BME280;42298;53.638;9.876;2023-07-20T07:38:16;101085.13;;;20.09;59.85
56400;BME280;42298;53.638;9.876;2023-07-20T07:40:41;101078.06;;;20.31;59.87
56400;BME280;42298;53.638;9.876;2023-07-20T07:43:07;101077.38;;;20.56;60.79
56400;BME280;42298;53.638;9.876;2023-07-20T07:45:34;101081.66;;;20.69;59.79
56400;BME280;42298;53.638;9.876;2023-07-20T07:48:04;101086.66;;;20.60;59.30
56400;BME280;42298;53.638;9.876;2023-07-20T07:50:29;101086.13;;;20.55;59.31
56400;BME280;42298;53.638;9.876;2023-07-20T07:52:55;101096.91;;;20.53;58.15
56400;BME280;42298;53.638;9.876;2023-07-20T07:55:20;101099.97;;;20.48;57.73
56400;BME280;42298;53.638;9.876;2023-07-20T07:57:45;101093.41;;;20.59;59.39
56400;BME280;42298;53.638;9.876;2023-07-20T08:00:13;101090.63;;;20.78;58.95
56400;BME280;42298;53.638;9.876;2023-07-20T08:02:40;101085.91;;;21.02;56.55
56400;BME280;42298;53.638;9.876;2023-07-20T08:05:06;101084.22;;;20.97;56.50
56400;BME280;42298;53.638;9.876;2023-07-20T08:07:32;101095.03;;;20.99;55.62
56400;BME280;42298;53.638;9.876;2023-07-20T08:09:57;101103.88;;;21.01;56.19
56400;BME280;42298;53.638;9.876;2023-07-20T08:12:22;101091.50;;;21.02;55.98
56400;BME280;42298;53.638;9.876;2023-07-20T08:14:49;101092.41;;;21.06;57.00
56400;BME280;42298;53.638;9.876;2023-07-20T08:17:14;101078.03;;;21.07;55.52
56400;BME280;42298;53.638;9.876;2023-07-20T08:19:40;101087.53;;;21.03;55.67
56400;BME280;42298;53.638;9.876;2023-07-20T08:22:07;101085.34;;;21.15;55.28
56400;BME280;42298;53.638;9.876;2023-07-20T08:24:32;101086.28;;;21.23;55.71
56400;BME280;42298;53.638;9.876;2023-07-20T08:26:58;101085.44;;;21.41;55.26
56400;BME280;42298;53.638;9.876;2023-07-20T08:29:24;101085.06;;;21.43;53.22
56400;BME280;42298;53.638;9.876;2023-07-20T08:31:49;101085.22;;;21.53;54.31
56400;BME280;42298;53.638;9.876;2023-07-20T08:34:14;101077.19;;;21.52;54.47
56400;BME280;42298;53.638;9.876;2023-07-20T08:36:40;101089.00;;;21.64;53.06
56400;BME280;42298;53.638;9.876;2023-07-20T08:39:05;101099.44;;;21.64;52.62
56400;BME280;42298;53.638;9.876;2023-07-20T08:41:30;101106.09;;;21.33;53.64
56400;BME280;42298;53.638;9.876;2023-07-20T08:43:56;101105.41;;;21.17;55.51
56400;BME280;42298;53.638;9.876;2023-07-20T08:46:24;101100.47;;;21.11;56.46
56400;BME280;42298;53.638;9.876;2023-07-20T08:48:52;101090.72;;;21.24;57.45
56400;BME280;42298;53.638;9.876;2023-07-20T08:51:17;101102.66;;;21.66;56.74
56400;BME280;42298;53.638;9.876;2023-07-20T08:53:45;101087.44;;;21.89;56.60
56400;BME280;42298;53.638;9.876;2023-07-20T08:56:11;101095.69;;;22.05;55.16
56400;BME280;42298;53.638;9.876;2023-07-20T08:58:39;101096.19;;;21.84;55.08
56400;BME280;42298;53.638;9.876;2023-07-20T09:01:04;101115.00;;;21.84;54.84
56400;BME280;42298;53.638;9.876;2023-07-20T09:03:30;101096.44;;;21.76;52.38
56400;BME280;42298;53.638;9.876;2023-07-20T09:05:55;101107.72;;;21.79;50.75
56400;BME280;42298;53.638;9.876;2023-07-20T09:08:20;101109.88;;;21.89;50.51
56400;BME280;42298;53.638;9.876;2023-07-20T09:10:46;101119.75;;;21.80;52.10
56400;BME280;42298;53.638;9.876;2023-07-20T09:13:15;101132.00;;;21.27;57.57
56400;BME280;42298;53.638;9.876;2023-07-20T09:15:53;101138.44;;;20.89;59.63
56400;BME280;42298;53.638;9.876;2023-07-20T09:18:25;101139.97;;;20.67;59.89
56400;BME280;42298;53.638;9.876;2023-07-20T09:20:51;101133.56;;;20.48;60.91
56400;BME280;42298;53.638;9.876;2023-07-20T09:23:16;101139.53;;;20.46;61.15
56400;BME280;42298;53.638;9.876;2023-07-20T09:25:42;101138.72;;;20.46;61.15
56400;BME280;42298;53.638;9.876;2023-07-20T09:28:07;101144.84;;;20.51;61.27
56400;BME280;42298;53.638;9.876;2023-07-20T09:30:32;101122.72;;;20.46;60.70
56400;BME280;42298;53.638;9.876;2023-07-20T09:32:58;101131.59;;;20.67;60.57
56400;BME280;42298;53.638;9.876;2023-07-20T09:35:24;101124.81;;;20.88;59.46
56400;BME280;42298;53.638;9.876;2023-07-20T09:37:51;101116.91;;;21.12;61.36
56400;BME280;42298;53.638;9.876;2023-07-20T09:40:18;101119.50;;;21.21;59.56
56400;BME280;42298;53.638;9.876;2023-07-20T09:42:43;101120.09;;;21.33;59.62
56400;BME280;42298;53.638;9.876;2023-07-20T09:45:09;101118.91;;;21.57;59.64
56400;BME280;42298;53.638;9.876;2023-07-20T09:47:36;101117.56;;;21.70;57.55
56400;BME280;42298;53.638;9.876;2023-07-20T09:50:02;101108.16;;;21.81;58.13
56400;BME280;42298;53.638;9.876;2023-07-20T09:52:29;101124.63;;;22.09;56.85
56400;BME280;42298;53.638;9.876;2023-07-20T09:54:55;101114.03;;;22.25;58.21
56400;BME280;42298;53.638;9.876;2023-07-20T09:57:21;101119.09;;;22.16;55.92
56400;BME280;42298;53.638;9.876;2023-07-20T09:59:46;101124.88;;;22.00;55.18
56400;BME280;42298;53.638;9.876;2023-07-20T10:02:20;101116.97;;;22.06;55.28
56400;BME280;42298;53.638;9.876;2023-07-20T10:04:46;101118.81;;;22.24;55.00
56400;BME280;42298;53.638;9.876;2023-07-20T10:07:13;101117.91;;;22.17;53.73
56400;BME280;42298;53.638;9.876;2023-07-20T10:09:40;101118.25;;;22.12;52.53
56400;BME280;42298;53.638;9.876;2023-07-20T10:12:07;101106.56;;;22.36;51.93
56400;BME280;42298;53.638;9.876;2023-07-20T10:14:41;101105.72;;;22.62;51.75
56400;BME280;42298;53.638;9.876;2023-07-20T10:17:11;101124.06;;;22.52;51.43
56400;BME280;42298;53.638;9.876;2023-07-20T10:19:47;101119.09;;;22.16;51.04
56400;BME280;42298;53.638;9.876;2023-07-20T10:22:17;101128.94;;;22.03;52.46
56400;BME280;42298;53.638;9.876;2023-07-20T10:24:46;101124.72;;;22.16;50.05
56400;BME280;42298;53.638;9.876;2023-07-20T10:27:13;101125.69;;;22.27;50.69
56400;BME280;42298;53.638;9.876;2023-07-20T10:29:40;101118.31;;;22.45;50.42
56400;BME280;42298;53.638;9.876;2023-07-20T10:32:07;101112.97;;;22.63;51.19
56400;BME280;42298;53.638;9.876;2023-07-20T10:34:33;101107.66;;;22.54;50.04
56400;BME280;42298;53.638;9.876;2023-07-20T10:36:58;101117.81;;;22.39;49.51
56400;BME280;42298;53.638;9.876;2023-07-20T10:39:25;101109.16;;;22.22;49.48
56400;BME280;42298;53.638;9.876;2023-07-20T10:42:18;101119.94;;;22.16;49.58
56400;BME280;42298;53.638;9.876;2023-07-20T10:44:44;101115.63;;;22.26;50.47
56400;BME280;42298;53.638;9.876;2023-07-20T10:47:12;101105.00;;;22.38;48.89
56400;BME280;42298;53.638;9.876;2023-07-20T10:50:00;101116.94;;;22.91;49.88
56400;BME280;42298;53.638;9.876;2023-07-20T10:52:25;101101.88;;;23.10;49.64
56400;BME280;42298;53.638;9.876;2023-07-20T10:54:51;101123.97;;;23.11;48.66
56400;BME280;42298;53.638;9.876;2023-07-20T10:57:36;101121.78;;;22.61;47.72
56400;BME280;42298;53.638;9.876;2023-07-20T11:00:10;101137.97;;;22.45;48.78
56400;BME280;42298;53.638;9.876;2023-07-20T11:02:47;101124.13;;;22.59;50.57
56400;BME280;42298;53.638;9.876;2023-07-20T11:05:36;101134.19;;;22.93;52.04
56400;BME280;42298;53.638;9.876;2023-07-20T11:08:04;101135.63;;;23.13;51.54
56400;BME280;42298;53.638;9.876;2023-07-20T11:10:29;101127.72;;;22.89;51.17
56400;BME280;42298;53.638;9.876;2023-07-20T11:15:46;101126.84;;;22.82;48.93
56400;BME280;42298;53.638;9.876;2023-07-20T11:18:13;101133.53;;;22.74;46.91
56400;BME280;42298;53.638;9.876;2023-07-20T11:20:39;101131.94;;;22.73;47.35
56400;BME280;42298;53.638;9.876;2023-07-20T11:23:05;101134.56;;;22.88;47.86
56400;BME280;42298;53.638;9.876;2023-07-20T11:25:42;101143.88;;;22.99;48.90
56400;BME280;42298;53.638;9.876;2023-07-20T11:28:08;101135.91;;;23.01;47.29
56400;BME280;42298;53.638;9.876;2023-07-20T11:30:38;101129.47;;;23.01;47.20
56400;BME280;42298;53.638;9.876;2023-07-20T11:33:08;101125.22;;;23.17;47.85
56400;BME280;42298;53.638;9.876;2023-07-20T11:35:44;101136.59;;;23.24;47.95
56400;BME280;42298;53.638;9.876;2023-07-20T11:38:13;101117.81;;;23.35;48.97
56400;BME280;42298;53.638;9.876;2023-07-20T11:40:45;101140.03;;;23.47;49.69
56400;BME280;42298;53.638;9.876;2023-07-20T11:43:12;101118.59;;;23.32;50.25
56400;BME280;42298;53.638;9.876;2023-07-20T11:45:38;101138.47;;;23.53;50.78
56400;BME280;42298;53.638;9.876;2023-07-20T11:48:04;101135.84;;;23.74;49.75
56400;BME280;42298;53.638;9.876;2023-07-20T11:50:29;101135.06;;;23.77;49.24
56400;BME280;42298;53.638;9.876;2023-07-20T11:52:55;101130.63;;;23.73;47.97
56400;BME280;42298;53.638;9.876;2023-07-20T11:55:21;101122.56;;;23.71;48.22
56400;BME280;42298;53.638;9.876;2023-07-20T11:58:04;101127.31;;;23.60;49.03
56400;BME280;42298;53.638;9.876;2023-07-20T12:00:29;101131.69;;;23.58;48.77
56400;BME280;42298;53.638;9.876;2023-07-20T12:02:55;101128.72;;;23.40;48.31
56400;BME280;42298;53.638;9.876;2023-07-20T12:05:22;101139.31;;;23.21;46.43
56400;BME280;42298;53.638;9.876;2023-07-20T12:07:49;101135.72;;;22.87;46.76
56400;BME280;42298;53.638;9.876;2023-07-20T12:10:15;101140.94;;;22.85;48.25
56400;BME280;42298;53.638;9.876;2023-07-20T12:12:43;101144.44;;;22.79;50.17
56400;BME280;42298;53.638;9.876;2023-07-20T12:17:46;101136.28;;;22.67;50.71
56400;BME280;42298;53.638;9.876;2023-07-20T12:20:12;101142.47;;;22.83;51.85
56400;BME280;42298;53.638;9.876;2023-07-20T12:22:42;101142.16;;;22.88;51.74
56400;BME280;42298;53.638;9.876;2023-07-20T12:25:08;101148.09;;;22.79;53.10
56400;BME280;42298;53.638;9.876;2023-07-20T12:27:36;101151.38;;;22.55;53.24
56400;BME280;42298;53.638;9.876;2023-07-20T12:30:04;101151.19;;;22.44;53.49
56400;BME280;42298;53.638;9.876;2023-07-20T12:32:30;101139.00;;;22.33;53.68
56400;BME280;42298;53.638;9.876;2023-07-20T12:34:56;101154.06;;;22.48;54.42
56400;BME280;42298;53.638;9.876;2023-07-20T12:37:21;101138.09;;;22.52;53.32
56400;BME280;42298;53.638;9.876;2023-07-20T12:39:47;101136.69;;;22.39;52.26
56400;BME280;42298;53.638;9.876;2023-07-20T12:42:12;101131.16;;;22.46;53.09
56400;BME280;42298;53.638;9.876;2023-07-20T12:44:41;101144.53;;;22.52;50.80
56400;BME280;42298;53.638;9.876;2023-07-20T12:47:07;101131.59;;;22.48;49.23
56400;BME280;42298;53.638;9.876;2023-07-20T12:49:32;101126.75;;;22.75;48.79
56400;BME280;42298;53.638;9.876;2023-07-20T12:51:57;101116.34;;;23.12;49.06
56400;BME280;42298;53.638;9.876;2023-07-20T12:54:25;101127.00;;;23.29;46.85
56400;BME280;42298;53.638;9.876;2023-07-20T12:56:50;101131.91;;;23.39;47.21
56400;BME280;42298;53.638;9.876;2023-07-20T12:59:15;101134.41;;;23.47;48.43
56400;BME280;42298;53.638;9.876;2023-07-20T13:01:40;101127.50;;;23.41;45.52